Time;durP1;ratioP1;P1;durP2;ratioP2;P2;SDS_P1;SDS_P2;PMS_P1;PMS_P2;Temp;Humidity;BMP_temperature;BMP_pressure;BME280_temperature;BME280_humidity;BME280_pressure;Samples;Min_cycle;Max_cycle;Signal;HPM_P1;HPM_P2
2023/03/29 00:00:58;;;;;;;7.13;6.43;;;;;;;-2.26;52.16;94168.53;5005931;28;20034;-75
2023/03/29 00:03:24;;;;;;;6.43;5.75;;;;;;;-2.52;52.70;94163.72;5014156;28;20037;-75
2023/03/29 00:05:56;;;;;;;6.50;5.88;;;;;;;-2.49;52.92;94168.50;5007666;28;20034;-77
2023/03/29 00:08:24;;;;;;;8.68;6.35;;;;;;;-2.39;52.81;94168.75;5005409;28;20501;-75
2023/03/29 00:10:50;;;;;;;6.75;5.07;;;;;;;-2.40;52.76;94161.97;5009897;28;20037;-75
2023/03/29 00:13:16;;;;;;;10.43;6.38;;;;;;;-2.25;52.29;94172.75;5007347;28;20381;-75
2023/03/29 00:15:42;;;;;;;8.18;5.70;;;;;;;-2.25;52.38;94172.75;5004845;28;20042;-76
2023/03/29 00:18:07;;;;;;;12.63;5.97;;;;;;;-2.33;52.51;94186.06;5008736;28;20547;-75
2023/03/29 00:20:33;;;;;;;7.57;5.78;;;;;;;-2.33;52.45;94171.25;5008636;28;20149;-76
2023/03/29 00:22:59;;;;;;;9.40;7.15;;;;;;;-2.51;52.39;94154.91;5006963;28;20128;-77
2023/03/29 00:25:24;;;;;;;6.20;5.63;;;;;;;-2.45;52.00;94164.44;5003595;28;20022;-76
2023/03/29 00:27:49;;;;;;;7.53;5.93;;;;;;;-2.40;52.00;94186.19;5004465;28;20095;-77
2023/03/29 00:30:15;;;;;;;6.15;5.60;;;;;;;-2.39;51.85;94158.34;5006542;28;20571;-76
2023/03/29 00:32:41;;;;;;;7.65;6.00;;;;;;;-2.09;50.82;94163.44;5006491;28;20038;-75
2023/03/29 00:35:07;;;;;;;6.13;5.53;;;;;;;-1.99;50.45;94193.16;5006468;28;20827;-76
2023/03/29 00:37:33;;;;;;;6.25;5.25;;;;;;;-2.18;50.47;94172.63;5006457;28;20018;-76
2023/03/29 00:39:59;;;;;;;6.22;5.63;;;;;;;-2.40;49.99;94128.88;5006168;28;20040;-75
2023/03/29 00:42:25;;;;;;;6.15;5.55;;;;;;;-2.20;49.99;94183.28;5006910;28;20385;-75
2023/03/29 00:45:01;;;;;;;7.70;5.00;;;;;;;-2.26;50.20;94186.78;5007034;28;20416;-77
2023/03/29 00:47:26;;;;;;;5.85;5.35;;;;;;;-2.28;50.61;94183.59;5005841;28;20061;-77
2023/03/29 00:49:53;;;;;;;7.75;6.22;;;;;;;-2.44;50.77;94163.44;5005813;28;20615;-76
2023/03/29 00:52:21;;;;;;;8.07;5.32;;;;;;;-2.50;50.72;94154.69;5006998;28;20407;-76
2023/03/29 00:54:51;;;;;;;6.10;5.53;;;;;;;-2.23;50.42;94175.09;5002951;28;20084;-75
2023/03/29 00:57:19;;;;;;;11.10;5.80;;;;;;;-1.92;49.50;94186.03;5005239;28;20471;-78
2023/03/29 00:59:47;;;;;;;6.57;5.97;;;;;;;-2.21;50.57;94175.69;5004834;28;20038;-74
2023/03/29 01:02:14;;;;;;;9.15;5.45;;;;;;;-2.24;50.30;94174.31;5012395;28;20028;-76
2023/03/29 01:04:50;;;;;;;6.28;5.68;;;;;;;-2.24;50.28;94187.34;5006411;28;20036;-75
2023/03/29 01:07:20;;;;;;;8.02;6.45;;;;;;;-2.37;50.83;94171.91;5006776;28;20048;-77
2023/03/29 01:09:54;;;;;;;10.40;5.72;;;;;;;-2.17;50.72;94193.25;5005306;28;20049;-76
2023/03/29 01:12:26;;;;;;;11.00;5.88;;;;;;;-2.35;50.67;94183.72;5007117;28;20045;-75
2023/03/29 01:15:03;;;;;;;7.88;5.47;;;;;;;-2.42;50.95;94195.22;5004041;28;20040;-77
2023/03/29 01:17:30;;;;;;;5.90;5.30;;;;;;;-2.60;51.30;94205.72;5003049;28;20603;-75
2023/03/29 01:20:09;;;;;;;8.07;5.90;;;;;;;-2.79;51.94;94192.78;5004447;28;20402;-75
2023/03/29 01:22:37;;;;;;;8.23;6.18;;;;;;;-2.79;52.11;94205.78;5002861;28;20918;-75
2023/03/29 01:25:30;;;;;;;7.68;6.97;;;;;;;-2.82;52.34;94200.19;5003853;28;20572;-75
2023/03/29 01:28:05;;;;;;;7.80;6.28;;;;;;;-2.92;52.14;94198.13;5012119;28;20044;-75
2023/03/29 01:30:44;;;;;;;9.52;5.70;;;;;;;-2.94;52.32;94205.38;5002500;28;20041;-76
2023/03/29 01:33:20;;;;;;;6.40;5.80;;;;;;;-2.85;52.23;94211.06;4999278;28;20026;-76
2023/03/29 01:36:22;;;;;;;9.07;5.72;;;;;;;-2.91;52.32;94194.53;5003912;28;20639;-76
2023/03/29 01:38:59;;;;;;;10.60;5.78;;;;;;;-2.84;52.27;94208.25;5006669;28;20045;-75
2023/03/29 01:41:44;;;;;;;6.80;6.10;;;;;;;-3.06;52.02;94183.69;5014781;28;20029;-76
2023/03/29 01:44:17;;;;;;;6.25;5.65;;;;;;;-3.27;52.27;94160.78;5006840;28;20396;-75
2023/03/29 01:46:50;;;;;;;7.35;6.05;;;;;;;-2.95;52.20;94209.00;5008068;28;20041;-75
2023/03/29 01:49:31;;;;;;;5.85;4.90;;;;;;;-2.87;52.10;94198.25;5009592;28;20595;-76
2023/03/29 01:52:22;;;;;;;6.47;5.85;;;;;;;-2.88;52.39;94207.13;5008228;28;20038;-75
2023/03/29 01:54:57;;;;;;;9.77;5.93;;;;;;;-3.26;52.78;94157.13;5009241;28;20022;-76
2023/03/29 01:57:25;;;;;;;8.00;6.03;;;;;;;-3.06;52.21;94172.50;5008082;28;20041;-76
2023/03/29 01:59:53;;;;;;;7.15;6.07;;;;;;;-2.80;51.42;94198.97;5011265;28;20042;-75
2023/03/29 02:02:20;;;;;;;6.53;5.90;;;;;;;-2.88;51.64;94203.72;5009550;28;20058;-75
2023/03/29 02:04:50;;;;;;;6.03;5.43;;;;;;;-2.76;51.72;94199.31;5011654;28;20030;-76
2023/03/29 02:07:19;;;;;;;6.45;5.85;;;;;;;-2.71;51.15;94200.25;5001316;28;20034;-75
2023/03/29 02:09:47;;;;;;;8.95;6.18;;;;;;;-2.93;50.48;94180.94;4991151;28;20640;-76
2023/03/29 02:12:15;;;;;;;7.30;6.18;;;;;;;-2.86;50.99;94209.47;4988183;28;20519;-75
2023/03/29 02:14:40;;;;;;;8.73;5.18;;;;;;;-3.23;50.89;94167.13;4991605;28;20038;-76
2023/03/29 02:17:26;;;;;;;5.85;5.25;;;;;;;-2.95;51.19;94210.78;4989143;28;20551;-75
2023/03/29 02:19:59;;;;;;;7.35;5.40;;;;;;;-2.82;50.57;94198.41;4989822;28;20035;-75
2023/03/29 02:22:37;;;;;;;7.43;5.68;;;;;;;-2.88;51.01;94222.72;5010403;28;20091;-76
2023/03/29 02:25:07;;;;;;;9.70;5.35;;;;;;;-2.76;50.35;94214.94;5015113;28;20046;-76
2023/03/29 02:27:32;;;;;;;6.97;5.13;;;;;;;-2.84;50.75;94191.84;5008914;28;20119;-75
2023/03/29 02:29:58;;;;;;;6.70;5.53;;;;;;;-2.76;50.20;94209.75;5006347;28;20151;-75
2023/03/29 02:32:39;;;;;;;8.02;6.15;;;;;;;-2.86;50.38;94202.47;5010924;28;20038;-75
2023/03/29 02:35:11;;;;;;;6.80;6.10;;;;;;;-2.82;50.33;94227.03;5007797;28;20048;-75
2023/03/29 02:37:40;;;;;;;8.57;5.13;;;;;;;-2.97;50.92;94220.63;5013300;28;20147;-76
2023/03/29 02:40:07;;;;;;;6.90;6.13;;;;;;;-3.01;51.19;94217.66;5007923;28;20066;-76
2023/03/29 02:42:34;;;;;;;5.70;5.20;;;;;;;-2.95;51.25;94222.00;5016714;28;20041;-75
2023/03/29 02:45:00;;;;;;;6.22;5.63;;;;;;;-3.01;51.52;94217.66;5006291;28;20038;-75
2023/03/29 02:47:31;;;;;;;6.07;5.15;;;;;;;-3.02;51.37;94204.91;5009840;28;20063;-76
2023/03/29 02:49:58;;;;;;;6.43;5.78;;;;;;;-2.75;51.32;94229.56;5009236;28;20037;-75
2023/03/29 02:52:32;;;;;;;5.78;5.22;;;;;;;-2.60;51.18;94234.38;5008423;28;20116;-75
2023/03/29 02:54:59;;;;;;;5.90;5.30;;;;;;;-2.58;50.66;94227.16;5007243;28;20040;-75
2023/03/29 02:57:27;;;;;;;7.78;5.57;;;;;;;-2.50;50.53;94239.84;5006648;28;20092;-76
2023/03/29 02:59:55;;;;;;;5.93;5.40;;;;;;;-2.53;51.08;94241.06;5008780;28;20563;-75
2023/03/29 03:02:24;;;;;;;5.65;5.25;;;;;;;-2.89;51.60;94220.34;5007160;28;20513;-75
2023/03/29 03:04:50;;;;;;;7.22;6.00;;;;;;;-2.84;52.03;94231.69;5010344;28;20021;-75
2023/03/29 03:07:16;;;;;;;7.05;4.80;;;;;;;-3.07;52.78;94234.16;5006965;28;20509;-75
2023/03/29 03:09:41;;;;;;;7.13;6.25;;;;;;;-3.03;53.02;94250.94;5005144;28;20056;-75
2023/03/29 03:12:07;;;;;;;5.57;5.00;;;;;;;-3.15;53.62;94253.47;5011063;28;20052;-76
2023/03/29 03:14:33;;;;;;;5.22;4.75;;;;;;;-3.14;53.62;94236.84;5005212;28;20140;-75
2023/03/29 03:16:58;;;;;;;6.10;5.60;;;;;;;-3.10;53.07;94239.00;5007664;28;20053;-76
2023/03/29 03:19:24;;;;;;;5.72;4.78;;;;;;;-3.25;53.33;94273.19;5006996;28;20034;-75
2023/03/29 03:21:49;;;;;;;5.38;4.53;;;;;;;-3.44;53.89;94248.97;5007693;28;20456;-77
2023/03/29 03:24:16;;;;;;;6.05;5.45;;;;;;;-3.25;53.79;94265.38;5007734;28;20034;-74
2023/03/29 03:26:45;;;;;;;7.40;5.20;;;;;;;-3.37;53.84;94254.13;5007901;28;20099;-75
2023/03/29 03:29:11;;;;;;;5.93;4.93;;;;;;;-3.20;53.36;94255.13;5008275;28;20037;-75
2023/03/29 03:31:40;;;;;;;7.57;5.30;;;;;;;-3.31;53.00;94242.81;5004750;28;20576;-75
2023/03/29 03:34:07;;;;;;;6.53;5.10;;;;;;;-3.16;52.77;94277.88;5007799;28;20041;-76
2023/03/29 03:36:33;;;;;;;7.22;5.80;;;;;;;-3.00;52.30;94279.13;5006382;28;20064;-75
2023/03/29 03:38:59;;;;;;;5.35;4.60;;;;;;;-3.27;51.49;94263.00;5006625;28;20034;-74
2023/03/29 03:41:25;;;;;;;5.25;4.75;;;;;;;-3.17;51.36;94297.09;5005694;28;20506;-75
2023/03/29 03:43:50;;;;;;;6.05;4.75;;;;;;;-3.27;51.71;94294.22;5007259;28;20494;-76
2023/03/29 03:46:16;;;;;;;6.88;4.55;;;;;;;-3.29;51.43;94292.84;5005596;28;20045;-75
2023/03/29 03:48:42;;;;;;;7.55;4.90;;;;;;;-3.37;51.66;94290.53;5007589;28;20049;-74
2023/03/29 03:51:09;;;;;;;8.82;4.80;;;;;;;-3.27;51.11;94294.22;5006244;28;20033;-75
2023/03/29 03:53:34;;;;;;;4.93;4.40;;;;;;;-3.44;50.99;94268.97;5005447;28;20437;-76
2023/03/29 03:56:01;;;;;;;7.53;4.43;;;;;;;-3.16;50.63;94301.31;5004295;28;20028;-74
2023/03/29 03:58:27;;;;;;;5.47;4.05;;;;;;;-3.20;50.50;94299.34;5006678;28;20477;-75
2023/03/29 04:00:53;;;;;;;4.43;4.03;;;;;;;-3.13;50.47;94300.09;5002633;28;20033;-76
2023/03/29 04:03:19;;;;;;;6.70;5.20;;;;;;;-2.99;49.74;94290.31;5007935;28;20029;-74
2023/03/29 04:05:45;;;;;;;6.55;5.63;;;;;;;-2.90;48.94;94296.81;5004709;28;20038;-75
2023/03/29 04:08:11;;;;;;;8.77;4.28;;;;;;;-3.03;49.21;94271.75;5005262;28;20328;-76
2023/03/29 04:10:37;;;;;;;4.57;3.70;;;;;;;-2.92;48.70;94294.44;5004784;28;20076;-75
2023/03/29 04:13:06;;;;;;;3.80;3.40;;;;;;;-2.91;48.41;94296.03;5006141;28;20037;-75
2023/03/29 04:15:32;;;;;;;6.22;4.40;;;;;;;-2.85;48.49;94295.16;5004950;28;20033;-75
2023/03/29 04:17:59;;;;;;;4.72;4.00;;;;;;;-2.73;47.86;94303.81;5005120;28;20568;-75
2023/03/29 04:20:26;;;;;;;5.57;3.70;;;;;;;-2.92;48.00;94306.66;5005342;28;20494;-75
2023/03/29 04:22:52;;;;;;;4.40;3.53;;;;;;;-3.02;48.01;94294.13;5012902;28;20038;-76
2023/03/29 04:25:18;;;;;;;9.13;3.97;;;;;;;-2.86;47.36;94309.19;5005784;28;20124;-75
2023/03/29 04:27:44;;;;;;;5.15;4.05;;;;;;;-3.03;47.77;94307.41;5001289;28;20360;-75
2023/03/29 04:30:11;;;;;;;4.53;4.13;;;;;;;-3.18;48.30;94305.94;5006337;28;20045;-76
2023/03/29 04:32:36;;;;;;;4.25;3.85;;;;;;;-3.09;48.11;94303.84;5005462;28;20045;-74
2023/03/29 04:35:05;;;;;;;6.40;4.60;;;;;;;-3.18;48.62;94295.53;5005935;28;20021;-74
2023/03/29 04:37:31;;;;;;;13.23;5.55;;;;;;;-2.97;48.58;94319.50;5005295;28;20026;-75
2023/03/29 04:40:01;;;;;;;5.55;5.05;;;;;;;-3.32;49.12;94285.47;5004010;28;20141;-76
2023/03/29 04:42:26;;;;;;;6.20;5.53;;;;;;;-3.35;49.46;94299.69;5007314;28;20034;-75
2023/03/29 04:44:53;;;;;;;6.00;5.38;;;;;;;-3.13;49.28;94313.09;5002449;28;20404;-76
2023/03/29 04:47:20;;;;;;;4.88;4.47;;;;;;;-3.16;49.23;94316.91;5007456;28;20052;-76
2023/03/29 04:49:46;;;;;;;5.20;4.03;;;;;;;-3.10;49.10;94330.88;5003947;28;20026;-75
2023/03/29 04:52:12;;;;;;;5.15;4.32;;;;;;;-3.22;49.25;94312.56;5006347;28;20045;-77
2023/03/29 04:54:38;;;;;;;4.90;3.97;;;;;;;-3.00;48.82;94323.34;5005002;28;20384;-75
2023/03/29 04:57:05;;;;;;;5.10;4.05;;;;;;;-2.94;48.84;94317.28;5005019;28;20060;-75
2023/03/29 04:59:31;;;;;;;6.43;4.43;;;;;;;-2.94;48.17;94312.09;5004443;28;20423;-75
2023/03/29 05:01:56;;;;;;;3.80;3.30;;;;;;;-2.71;47.88;94325.22;5006567;28;20423;-75
2023/03/29 05:04:21;;;;;;;4.57;3.90;;;;;;;-2.93;47.96;94326.69;5003783;28;20041;-75
2023/03/29 05:06:47;;;;;;;4.63;3.95;;;;;;;-2.85;47.58;94300.38;5003968;28;20535;-77
2023/03/29 05:09:13;;;;;;;5.85;4.50;;;;;;;-2.74;47.45;94345.72;5004451;28;20054;-75
2023/03/29 05:11:38;;;;;;;5.15;3.65;;;;;;;-2.96;47.46;94314.09;5001321;28;20045;-75
2023/03/29 05:14:06;;;;;;;4.57;4.00;;;;;;;-2.71;46.97;94338.25;5005100;28;20558;-75
2023/03/29 05:16:33;;;;;;;9.63;3.75;;;;;;;-2.66;46.32;94334.19;5004784;28;20013;-76
2023/03/29 05:18:59;;;;;;;5.20;3.60;;;;;;;-2.54;46.12;94358.50;5005762;28;20033;-77
2023/03/29 05:21:27;;;;;;;4.55;3.95;;;;;;;-2.49;45.90;94358.66;5003325;28;20040;-75
2023/03/29 05:23:53;;;;;;;3.95;3.65;;;;;;;-2.43;46.09;94365.56;5004597;28;20685;-75
2023/03/29 05:26:20;;;;;;;4.90;4.40;;;;;;;-2.56;46.53;94371.72;5002808;28;20381;-76
2023/03/29 05:28:46;;;;;;;4.82;4.35;;;;;;;-2.55;46.74;94352.50;5003530;28;20435;-76
2023/03/29 05:31:12;;;;;;;4.82;3.67;;;;;;;-2.28;46.51;94363.38;5004647;28;20102;-76
2023/03/29 05:33:37;;;;;;;4.40;3.83;;;;;;;-2.20;46.79;94364.91;5004856;28;20037;-76
2023/03/29 05:36:09;;;;;;;6.07;3.53;;;;;;;-2.17;46.07;94339.19;5003440;28;20049;-75
2023/03/29 05:38:35;;;;;;;4.47;4.03;;;;;;;-2.16;46.03;94322.53;5010880;28;20046;-75
2023/03/29 05:41:01;;;;;;;5.22;3.75;;;;;;;-1.85;45.33;94337.91;5005664;28;20112;-76
2023/03/29 05:43:27;;;;;;;5.35;3.80;;;;;;;-1.39;45.17;94362.50;5005496;28;20021;-76
2023/03/29 05:45:54;;;;;;;4.82;4.32;;;;;;;-1.31;44.89;94343.13;5003546;28;20543;-76
2023/03/29 05:48:21;;;;;;;6.32;4.47;;;;;;;-1.43;44.68;94346.50;5006009;28;20033;-75
2023/03/29 05:50:51;;;;;;;7.35;5.80;;;;;;;-1.42;44.90;94371.56;5004508;28;20037;-75
2023/03/29 05:53:17;;;;;;;5.03;3.55;;;;;;;-1.57;45.26;94367.81;5004124;28;20060;-74
2023/03/29 05:55:43;;;;;;;5.28;4.20;;;;;;;-1.59;45.39;94351.56;5003469;28;20022;-75
2023/03/29 05:58:09;;;;;;;5.85;3.97;;;;;;;-1.62;45.45;94331.16;5004853;28;20421;-75
2023/03/29 06:00:35;;;;;;;6.15;4.10;;;;;;;-1.36;44.91;94362.03;5002104;28;20426;-76
2023/03/29 06:03:01;;;;;;;17.95;6.97;;;;;;;-1.46;43.80;94338.34;5003379;28;20057;-76
2023/03/29 06:05:27;;;;;;;5.72;4.22;;;;;;;-1.54;44.12;94349.09;5001490;28;20215;-76
2023/03/29 06:07:53;;;;;;;6.60;4.68;;;;;;;-1.26;44.13;94367.47;5007025;28;20153;-76
2023/03/29 06:10:19;;;;;;;3.97;3.45;;;;;;;-1.29;43.65;94354.09;5001348;28;20034;-75
2023/03/29 06:12:48;;;;;;;7.70;4.45;;;;;;;-0.93;44.17;94384.41;5004066;28;20465;-76
2023/03/29 06:15:14;;;;;;;6.55;5.38;;;;;;;-0.76;43.17;94372.25;5003626;28;20104;-76
2023/03/29 06:17:40;;;;;;;5.28;4.53;;;;;;;-0.88;42.77;94369.66;5005395;28;20703;-74
2023/03/29 06:20:09;;;;;;;4.35;3.80;;;;;;;-1.12;42.74;94347.97;5001430;28;20377;-76
2023/03/29 06:22:38;;;;;;;4.30;3.70;;;;;;;-1.30;43.43;94361.13;5006399;28;20029;-76
2023/03/29 06:25:08;;;;;;;7.38;5.72;;;;;;;-1.05;43.65;94394.84;5004899;28;20037;-74
2023/03/29 06:27:34;;;;;;;4.95;4.20;;;;;;;-1.30;43.77;94387.22;5007465;28;20588;-74
2023/03/29 06:30:00;;;;;;;6.30;5.28;;;;;;;-1.32;43.92;94394.50;5007125;28;20037;-74
2023/03/29 06:32:26;;;;;;;3.90;3.25;;;;;;;-1.27;44.04;94404.28;5011082;28;20064;-77
2023/03/29 06:34:53;;;;;;;4.80;3.78;;;;;;;-1.57;44.37;94396.50;5007781;28;20025;-77
2023/03/29 06:37:19;;;;;;;4.95;3.90;;;;;;;-1.50;44.39;94386.75;5014334;28;20048;-76
2023/03/29 06:39:44;;;;;;;15.10;8.07;;;;;;;-1.26;43.95;94414.47;5007018;28;20038;-77
2023/03/29 06:42:09;;;;;;;12.15;7.30;;;;;;;-1.34;43.99;94401.75;5007271;28;20045;-76
2023/03/29 06:44:36;;;;;;;5.82;3.88;;;;;;;-1.33;43.76;94416.41;5008137;28;20064;-76
2023/03/29 06:47:02;;;;;;;4.45;3.63;;;;;;;-1.24;43.39;94422.88;5009707;28;20101;-76
2023/03/29 06:49:28;;;;;;;4.53;3.25;;;;;;;-1.37;43.74;94404.81;5006759;28;20099;-77
2023/03/29 06:51:53;;;;;;;6.63;3.58;;;;;;;-1.19;43.46;94436.03;5007373;28;20455;-76
2023/03/29 06:54:19;;;;;;;3.42;3.13;;;;;;;-1.31;43.92;94432.59;5006567;28;20037;-76
2023/03/29 06:56:46;;;;;;;3.40;3.10;;;;;;;-1.38;43.39;94424.91;5007853;28;20124;-76
2023/03/29 06:59:12;;;;;;;9.15;5.80;;;;;;;-1.85;43.73;94377.00;5006359;28;20075;-77
2023/03/29 07:01:37;;;;;;;3.78;3.15;;;;;;;-1.65;43.67;94389.78;5005103;28;20026;-76
2023/03/29 07:04:07;;;;;;;3.88;3.45;;;;;;;-1.46;43.64;94424.44;5005830;28;20036;-76
2023/03/29 07:06:33;;;;;;;7.53;3.33;;;;;;;-1.42;43.11;94421.16;5007560;28;20245;-77
2023/03/29 07:09:00;;;;;;;8.88;4.70;;;;;;;-1.57;42.85;94396.50;5005942;28;20053;-76
2023/03/29 07:11:26;;;;;;;14.35;6.53;;;;;;;-1.34;43.10;94427.84;5008371;28;20052;-76
2023/03/29 07:13:52;;;;;;;5.93;3.55;;;;;;;-1.22;42.96;94427.88;5006899;28;20435;-77
2023/03/29 07:16:18;;;;;;;4.03;3.13;;;;;;;-1.37;42.62;94370.91;5009825;28;20025;-76
2023/03/29 07:18:44;;;;;;;3.35;2.90;;;;;;;-1.01;42.18;94435.94;5006954;28;20033;-76
2023/03/29 07:21:11;;;;;;;3.33;2.92;;;;;;;-1.20;42.64;94412.78;5006192;28;20523;-76
2023/03/29 07:23:37;;;;;;;6.25;3.38;;;;;;;-1.01;42.62;94416.88;5005789;28;20123;-77
2023/03/29 07:26:05;;;;;;;3.55;3.10;;;;;;;-0.73;42.13;94442.34;5006964;28;20543;-75
2023/03/29 07:28:31;;;;;;;4.85;3.08;;;;;;;-0.93;41.66;94413.16;5004725;28;20033;-76
2023/03/29 07:31:05;;;;;;;4.60;2.88;;;;;;;-0.86;41.65;94424.25;5008379;28;20045;-75
2023/03/29 07:33:31;;;;;;;4.35;2.90;;;;;;;-1.08;41.52;94367.41;5006832;28;20042;-76
2023/03/29 07:35:57;;;;;;;5.50;3.15;;;;;;;-0.81;41.74;94429.59;5005010;28;20603;-76
2023/03/29 07:38:24;;;;;;;6.45;3.53;;;;;;;-0.93;41.99;94400.88;5007213;28;21133;-76
2023/03/29 07:40:50;;;;;;;4.72;3.40;;;;;;;-0.68;41.68;94416.31;5007456;28;20029;-76
2023/03/29 07:43:17;;;;;;;3.88;2.72;;;;;;;-0.47;41.51;94413.09;5017945;28;20041;-76
2023/03/29 07:45:43;;;;;;;4.13;2.90;;;;;;;-0.77;41.23;94402.00;5007049;28;20457;-75
2023/03/29 07:48:09;;;;;;;4.85;3.03;;;;;;;-0.66;41.66;94381.09;5002744;28;20029;-76
2023/03/29 07:50:34;;;;;;;3.55;3.13;;;;;;;-0.51;41.32;94401.53;5003515;28;20436;-76
2023/03/29 07:53:01;;;;;;;9.63;5.60;;;;;;;-0.46;41.01;94375.50;5007678;28;20067;-75
2023/03/29 07:55:26;;;;;;;6.15;3.78;;;;;;;-0.11;40.64;94404.16;5006975;28;20107;-75
2023/03/29 07:57:52;;;;;;;8.95;3.20;;;;;;;-0.02;39.84;94388.91;5006382;28;20038;-75
2023/03/29 08:00:18;;;;;;;8.38;3.20;;;;;;;-0.15;40.34;94375.09;5006355;28;20064;-75
2023/03/29 08:02:46;;;;;;;4.72;3.83;;;;;;;-0.01;39.70;94395.72;5004310;28;20596;-76
2023/03/29 08:05:13;;;;;;;6.70;3.50;;;;;;;-0.00;38.69;94386.84;5007248;28;20056;-76
2023/03/29 08:07:40;;;;;;;6.95;5.13;;;;;;;0.11;38.92;94386.00;5006304;28;20109;-77
2023/03/29 08:10:12;;;;;;;6.50;2.67;;;;;;;0.05;39.42;94374.66;5007407;28;20530;-76
2023/03/29 08:12:38;;;;;;;3.40;3.05;;;;;;;0.15;38.55;94351.31;5001275;28;20041;-76
2023/03/29 08:15:05;;;;;;;2.45;2.25;;;;;;;0.35;38.72;94371.78;4987805;28;20031;-76
2023/03/29 08:17:31;;;;;;;3.05;2.40;;;;;;;0.39;39.99;94359.81;4986259;28;20027;-76
2023/03/29 08:19:56;;;;;;;4.15;2.70;;;;;;;0.68;38.61;94377.06;4985447;28;20036;-76
2023/03/29 08:22:22;;;;;;;3.92;2.38;;;;;;;0.24;36.42;94362.97;4984176;28;20689;-76
2023/03/29 08:24:47;;;;;;;6.85;3.25;;;;;;;0.22;37.43;94366.84;4987252;28;20045;-76
2023/03/29 08:27:13;;;;;;;10.27;2.75;;;;;;;0.16;38.23;94355.50;4985016;28;20081;-77
2023/03/29 08:29:38;;;;;;;5.43;3.15;;;;;;;0.31;37.90;94353.16;5000789;28;20041;-76
2023/03/29 08:32:04;;;;;;;4.40;2.83;;;;;;;0.11;37.54;94347.56;4985338;28;20033;-75
2023/03/29 08:34:30;;;;;;;5.30;2.65;;;;;;;-0.09;38.29;94358.44;4988021;28;20535;-76
2023/03/29 08:36:57;;;;;;;4.55;2.42;;;;;;;0.06;37.54;94359.75;5001960;28;20040;-76
2023/03/29 08:39:23;;;;;;;3.42;2.40;;;;;;;0.28;37.41;94363.28;5006440;28;20833;-76
2023/03/29 08:41:51;;;;;;;3.58;2.50;;;;;;;0.40;36.87;94365.84;5014272;28;20033;-77
2023/03/29 08:44:25;;;;;;;6.35;3.50;;;;;;;0.35;37.62;94354.25;5007102;28;20063;-77
2023/03/29 08:47:23;;;;;;;4.83;2.83;;;;;;;0.58;35.86;94353.34;5005455;28;20514;-76
2023/03/29 08:49:54;;;;;;;6.22;2.75;;;;;;;0.52;36.03;94382.28;5002640;28;20059;-76
2023/03/29 08:52:42;;;;;;;6.07;2.67;;;;;;;0.52;35.67;94369.97;5005435;28;20062;-77
2023/03/29 08:55:22;;;;;;;2.53;2.15;;;;;;;0.43;36.41;94313.84;5006977;28;20575;-77
2023/03/29 08:57:50;;;;;;;6.22;2.03;;;;;;;0.66;36.44;94371.25;5001161;28;20045;-76
2023/03/29 09:00:23;;;;;;;4.38;2.40;;;;;;;0.78;36.13;94348.41;5005973;28;20038;-76
2023/03/29 09:02:52;;;;;;;7.72;2.58;;;;;;;0.74;36.59;94336.81;5007448;28;20079;-76
2023/03/29 09:05:28;;;;;;;4.53;2.00;;;;;;;0.86;36.97;94343.81;5002409;28;20021;-76
2023/03/29 09:07:53;;;;;;;2.80;1.92;;;;;;;1.07;37.16;94356.16;5006504;28;20541;-76
2023/03/29 09:10:27;;;;;;;2.65;2.08;;;;;;;1.32;36.66;94358.34;5004836;28;20165;-77
2023/03/29 09:12:58;;;;;;;3.30;1.80;;;;;;;1.32;35.68;94374.88;5005429;28;20607;-76
2023/03/29 09:15:32;;;;;;;3.42;2.10;;;;;;;0.93;36.17;94313.81;5004737;28;20026;-76
2023/03/29 09:18:35;;;;;;;3.55;2.30;;;;;;;1.44;37.08;94336.22;5003046;28;20068;-77
2023/03/29 09:21:29;;;;;;;3.42;2.03;;;;;;;1.61;34.98;94342.22;4994740;28;20045;-77
2023/03/29 09:24:03;;;;;;;3.85;2.17;;;;;;;1.85;35.81;94344.56;5006633;28;20042;-77
2023/03/29 09:26:41;;;;;;;4.90;1.77;;;;;;;2.01;34.57;94346.38;5002998;28;20046;-74
2023/03/29 09:29:35;;;;;;;1.90;1.67;;;;;;;1.98;33.09;94342.38;5002924;28;20555;-76
2023/03/29 09:32:05;;;;;;;2.67;1.83;;;;;;;1.94;33.55;94343.13;5000630;28;20041;-76
2023/03/29 09:34:42;;;;;;;3.63;2.17;;;;;;;1.70;33.52;94332.09;5005502;28;20365;-76
2023/03/29 09:37:27;;;;;;;4.25;2.00;;;;;;;1.75;34.33;94328.72;5005515;28;20069;-76
2023/03/29 09:39:55;;;;;;;2.88;1.90;;;;;;;1.71;34.88;94325.00;5012925;28;20034;-77
2023/03/29 09:42:22;;;;;;;1.90;1.70;;;;;;;1.67;34.15;94330.72;5005319;28;20029;-76
2023/03/29 09:44:51;;;;;;;3.03;1.50;;;;;;;1.86;35.17;94348.78;5003315;28;20590;-76
2023/03/29 09:47:20;;;;;;;2.58;1.85;;;;;;;1.92;34.78;94347.81;5007753;28;20418;-76
2023/03/29 09:49:50;;;;;;;5.18;2.35;;;;;;;1.79;34.09;94328.00;5002566;28;20034;-76
2023/03/29 09:52:17;;;;;;;4.15;1.75;;;;;;;1.77;33.15;94318.75;5006410;28;20338;-76
2023/03/29 09:54:43;;;;;;;4.28;1.50;;;;;;;1.74;30.62;94350.72;5001863;28;20607;-75
2023/03/29 09:57:15;;;;;;;2.80;1.42;;;;;;;1.78;31.35;94346.59;5005486;28;20056;-76
2023/03/29 09:59:42;;;;;;;4.72;1.63;;;;;;;1.78;29.63;94309.88;5007158;28;20402;-75
2023/03/29 10:02:10;;;;;;;2.65;1.33;;;;;;;1.98;29.59;94341.59;5007236;28;20018;-77
2023/03/29 10:04:37;;;;;;;3.63;1.55;;;;;;;2.09;29.48;94341.47;5011218;28;20036;-76
2023/03/29 10:07:04;;;;;;;2.30;1.77;;;;;;;2.14;31.00;94335.47;5005670;28;20554;-75
2023/03/29 10:09:31;;;;;;;4.65;1.63;;;;;;;2.27;30.53;94335.06;5023637;28;20148;-75
2023/03/29 10:12:01;;;;;;;2.95;1.60;;;;;;;2.46;31.32;94348.63;5014961;28;20034;-75
2023/03/29 10:14:51;;;;;;;1.75;1.40;;;;;;;2.38;28.91;94310.50;5007387;28;20033;-76
2023/03/29 10:17:26;;;;;;;1.90;1.70;;;;;;;2.34;29.91;94308.63;5007656;28;20399;-76
2023/03/29 10:19:56;;;;;;;2.95;1.70;;;;;;;2.57;30.35;94325.88;5008780;28;20034;-76
2023/03/29 10:22:25;;;;;;;9.00;1.65;;;;;;;2.86;29.19;94311.38;5007435;28;20034;-76
2023/03/29 10:24:52;;;;;;;2.65;1.42;;;;;;;2.75;28.81;94325.47;5007853;28;20508;-76
2023/03/29 10:27:22;;;;;;;2.65;1.60;;;;;;;2.66;28.33;94306.78;5007243;28;20050;-76
2023/03/29 10:29:49;;;;;;;3.55;1.65;;;;;;;2.53;29.76;94317.72;5009337;28;20072;-75
2023/03/29 10:32:28;;;;;;;2.00;1.50;;;;;;;2.48;28.13;94294.84;5006981;28;20038;-76
2023/03/29 10:34:58;;;;;;;3.78;1.80;;;;;;;2.49;29.74;94322.69;5006756;28;20618;-75
2023/03/29 10:37:23;;;;;;;2.15;1.77;;;;;;;2.35;28.13;94316.22;5009863;28;20069;-75
2023/03/29 10:39:50;;;;;;;2.72;1.80;;;;;;;2.33;29.46;94294.72;5007025;28;20164;-76
2023/03/29 10:42:18;;;;;;;1.63;1.52;;;;;;;2.48;28.68;94309.78;5005940;28;20125;-76
2023/03/29 10:44:55;;;;;;;8.23;2.88;;;;;;;2.50;29.39;94295.34;5007215;28;20044;-75
2023/03/29 10:47:21;;;;;;;2.83;1.73;;;;;;;2.47;28.88;94306.38;5009025;28;20044;-76
2023/03/29 10:50:10;;;;;;;4.93;1.55;;;;;;;2.64;29.78;94297.56;5007524;28;20033;-77
2023/03/29 10:52:38;;;;;;;1.40;1.30;;;;;;;2.76;29.74;94298.19;5008876;28;20054;-75
2023/03/29 10:55:04;;;;;;;5.95;1.70;;;;;;;2.89;29.67;94300.38;5008521;28;20026;-75
2023/03/29 10:57:41;;;;;;;2.22;2.05;;;;;;;2.73;29.34;94243.53;5004243;28;20057;-75
2023/03/29 11:00:17;;;;;;;5.32;1.90;;;;;;;2.98;30.70;94283.09;5006687;28;20080;-76
2023/03/29 11:02:51;;;;;;;4.05;2.00;;;;;;;3.15;29.92;94298.69;5005985;28;20041;-76
2023/03/29 11:05:32;;;;;;;1.83;1.33;;;;;;;2.83;29.43;94233.88;5012285;28;20037;-76
2023/03/29 11:08:15;;;;;;;1.73;1.48;;;;;;;3.18;28.86;94299.00;5003374;28;20322;-76
2023/03/29 11:10:50;;;;;;;3.20;1.55;;;;;;;3.31;28.24;94281.94;5006397;28;20042;-75
2023/03/29 11:13:40;;;;;;;2.72;1.90;;;;;;;3.22;27.15;94278.22;5003824;28;20508;-76
2023/03/29 11:16:18;;;;;;;3.83;1.60;;;;;;;3.30;27.78;94283.00;5006383;28;20040;-76
2023/03/29 11:18:46;;;;;;;3.95;1.90;;;;;;;3.42;28.27;94269.66;5013458;28;20033;-76
2023/03/29 11:21:33;;;;;;;4.07;1.70;;;;;;;3.44;28.04;94278.06;5005483;28;20045;-76
2023/03/29 11:24:19;;;;;;;1.80;1.70;;;;;;;3.52;26.61;94288.09;5005980;28;20034;-77
2023/03/29 11:27:27;;;;;;;5.60;1.50;;;;;;;3.45;27.62;94280.44;5004699;28;20145;-76
2023/03/29 11:30:02;;;;;;;2.00;1.58;;;;;;;3.46;28.66;94273.34;4995986;28;20467;-77
2023/03/29 11:32:42;;;;;;;2.85;1.33;;;;;;;3.64;29.69;94262.34;5007085;28;20452;-76
2023/03/29 11:35:31;;;;;;;2.05;1.70;;;;;;;3.74;28.37;94288.69;5012111;28;22275;-75
2023/03/29 11:38:34;;;;;;;2.42;1.80;;;;;;;3.68;28.49;94287.09;5007413;28;20056;-76
2023/03/29 11:41:03;;;;;;;2.00;1.40;;;;;;;3.58;26.88;94281.78;5008571;28;20037;-76
2023/03/29 11:43:34;;;;;;;2.85;1.90;;;;;;;3.56;26.68;94283.91;5005358;28;20670;-76
2023/03/29 11:46:26;;;;;;;2.03;1.35;;;;;;;3.45;27.08;94263.88;5006223;28;20108;-76
2023/03/29 11:48:59;;;;;;;2.92;1.42;;;;;;;3.62;26.51;94267.09;5006730;28;20034;-76